• Join FlightAware (Why Join?)
  • Login
  • US Flag GB Flag 
04:00 EDT


 

Airport Tracker/Info


-or-


 

Live Flight TrackerFlight Track Log ✈ SWA286 ✈ 09-Apr-2013 ✈ KISP - KBWI

Flight Track Log - Related Links

Times and Time Zones

All times are in EDT time to prevent confusion due to time zone crossing. See the SWA286 flight status page for this flight to view local times or setup timezone preferences in your user account.

Time Position Orientation Groundspeed Altitude Reporting Facility
EDT Latitude Longitude Course Direction KTS MPH feet Rate Location/Type
15:15 40.8478 -73.1206 221° Southwest 143 165 3,700  Level Boston Center
15:15 40.8339 -73.0272 101° East 107 123 7,100 2,160 Climbing Boston Center
15:16 40.8094 -72.9064 105° East 254 292 8,000 720 Climbing Boston Center
15:17 40.7869 -72.7964 105° East 288 331 8,600 1,560 Climbing Boston Center
15:18 40.7539 -72.6867 112° Southeast 305 351 11,200 3,120 Climbing Boston Center
15:19 40.6600 -72.6453 162° South 322 371 15,000 3,420 Climbing Boston Center
15:20 40.6542 -72.6239 221° Southwest  Level FlightAware Approximate
15:20 40.5869 -72.6997 210° Southwest 296 341 18,100  Level Boston Center
15:21 40.5139 -72.7867 222° Southwest 299 344 21,500 3,120 Climbing Boston Center
15:22 40.4322 -72.8789 221° Southwest 352 405 24,400 2,820 Climbing Boston Center
15:24 40.3506 -72.9711 221° Southwest 380 437 27,800 1,440 Climbing Boston Center
15:25 40.2481 -73.0872 221° Southwest 400 460 28,000 60 Climbing Boston Center
15:27 40.0419 -73.3178 221° Southwest 426 490 28,000  Level Washington Center
15:28 39.9542 -73.4208 222° Southwest 426 490 28,000  Level Washington Center
15:29 39.8642 -73.5181 220° Southwest 426 490 28,000  Level Washington Center
15:30 39.7764 -73.6153 220° Southwest 426 490 28,000  Level Washington Center
15:31 39.6797 -73.7014 214° Southwest 426 490 28,000  Level Washington Center
15:32 39.5619 -73.7583 200° South 426 490 28,000 -300 Level Washington Center
15:33 39.4481 -73.8178 202° Southwest 437 503 27,500 -1,320 Descending Washington Center
15:34 39.3325 -73.8878 205° Southwest 442 509 25,400 -2,100 Descending Washington Center
15:35 39.2672 -73.9964 232° Southwest 403 464 23,400 -2,040 Descending Washington Center
15:36 39.2042 -74.1050 233° Southwest 389 448 21,400 -2,040 Descending Washington Center
15:37 39.1386 -74.2133 232° Southwest 389 448 19,400 -1,620 Descending Washington Center
15:38 39.0772 -74.3108 231° Southwest 376 433 18,200 -1,140 Descending Washington Center
15:39 39.0178 -74.4081 232° Southwest 361 415 17,200 -900 Descending Washington Center
15:40 38.9603 -74.5025 232° Southwest 349 402 16,500 -660 Descending Washington Center
15:41 38.9239 -74.6125 247° West 326 375 15,900 -300 Descending Washington Center
15:42 38.9039 -74.7247 257° West 326 375 15,900  Level Washington Center
15:43 38.8836 -74.8369 257° West 326 375 16,000 -60 Climbing Washington Center
15:44 38.8594 -74.9519 255° West 326 375 15,800 -600 Descending Washington Center
15:45 38.8392 -75.0667 257° West 331 381 14,800 -900 Descending Washington Center
15:46 38.8186 -75.1814 257° West 331 381 14,000 -420 Descending Washington Center
15:47 38.8044 -75.2881 260° West 331 381 14,000  Level Washington Center
15:48 38.7983 -75.4000 266° West 321 369 14,000  Level Washington Center
15:49 38.7922 -75.5117 266° West 321 369 14,000  Level Washington Center
15:50 38.7842 -75.6208 265° West 321 369 14,000  Level Washington Center
15:51 38.7778 -75.7328 266° West 316 364 14,000 -540 Level Washington Center
15:52 38.7714 -75.8419 266° West 311 358 13,000 -1,020 Descending Washington Center
15:53 38.7628 -75.9511 264° West 311 358 12,000 -1,020 Descending Washington Center
15:54 38.7561 -76.0494 265° West 301 346 11,000 -780 Descending Washington Center
15:55 38.7911 -76.1322 298° West 273 314 10,500 -1,080 Descending Washington Center
15:56 38.8033 -76.2256 280° West 266 306 8,900 -1,620 Descending Washington Center
15:57 38.8006 -76.3189 268° West 261 300 7,300 -1,080 Descending Washington Center
15:58 38.8042 -76.4094 273° West 261 300 6,800 -1,020 Descending Washington Center
15:59 38.8333 -76.4333 327° Northwest 278 320 5,800 -1,740 Descending Potomac TRACON
16:00 38.9167 -76.4833 335° Northwest 269 310 4,300 -1,140 Descending Potomac TRACON
16:01 38.9667 -76.5167 333° Northwest 245 282 3,600 -720 Descending Potomac TRACON
16:01 39.0167 -76.5500 333° Northwest 214 246 3,000 -720 Descending Potomac TRACON
16:02 39.0667 -76.5833 333° Northwest 199 229 2,300 -900 Descending Potomac TRACON
16:03 39.1167 -76.6167 333° Northwest 166 191 1,300 -900 Descending Potomac TRACON
16:04 39.1500 -76.6500 322° Northwest 133 153 600 -720 Descending Potomac TRACON
16:06 39.1667 -76.6667 308° West  Level FlightAware Approximate
16:13 39.1754 -76.6683 308° West  Level Estimated
16:14 39.1754 -76.6683 308° West  Level Estimated
16:15 39.1754 -76.6683 308° West  Level Estimated
16:16 39.1754 -76.6683 308° West  Level Estimated
16:17 39.1754 -76.6683 308° West  Level Estimated
16:18 39.1754 -76.6683 308° West  Level Estimated
16:19 39.1754 -76.6683 308° West  Level Estimated